Map

Track Data

SID SEASON NUMBER BASIN SUBBASIN NAME ISO_TIME NATURE LAT LON WMO_WIND WMO_PRES WMO_AGENCY TRACK_TYPE DIST2LAND LANDFALL IFLAG USA_AGENCY USA_ATCF_ID USA_LAT USA_LON USA_RECORD USA_STATUS USA_WIND USA_PRES USA_SSHS USA_R34_NE USA_R34_SE USA_R34_SW USA_R34_NW USA_R50_NE USA_R50_SE USA_R50_SW USA_R50_NW USA_R64_NE USA_R64_SE USA_R64_SW USA_R64_NW USA_POCI USA_ROCI USA_RMW USA_EYE TOKYO_LAT TOKYO_LON TOKYO_GRADE TOKYO_WIND TOKYO_PRES TOKYO_R50_DIR TOKYO_R50_LONG TOKYO_R50_SHORT TOKYO_R30_DIR TOKYO_R30_LONG TOKYO_R30_SHORT TOKYO_LAND CMA_LAT CMA_LON CMA_CAT CMA_WIND CMA_PRES HKO_LAT HKO_LON HKO_CAT HKO_WIND HKO_PRES NEWDELHI_LAT NEWDELHI_LON NEWDELHI_GRADE NEWDELHI_WIND NEWDELHI_PRES NEWDELHI_CI NEWDELHI_DP NEWDELHI_POCI REUNION_LAT REUNION_LON REUNION_TYPE REUNION_WIND REUNION_PRES REUNION_TNUM REUNION_CI REUNION_RMW REUNION_R34_NE REUNION_R34_SE REUNION_R34_SW REUNION_R34_NW REUNION_R50_NE REUNION_R50_SE REUNION_R50_SW REUNION_R50_NW REUNION_R64_NE REUNION_R64_SE REUNION_R64_SW REUNION_R64_NW BOM_LAT BOM_LON BOM_TYPE BOM_WIND BOM_PRES BOM_TNUM BOM_CI BOM_RMW BOM_R34_NE BOM_R34_SE BOM_R34_SW BOM_R34_NW BOM_R50_NE BOM_R50_SE BOM_R50_SW BOM_R50_NW BOM_R64_NE BOM_R64_SE BOM_R64_SW BOM_R64_NW BOM_ROCI BOM_POCI BOM_EYE BOM_POS_METHOD BOM_PRES_METHOD NADI_LAT NADI_LON NADI_CAT NADI_WIND NADI_PRES WELLINGTON_LAT WELLINGTON_LON WELLINGTON_WIND WELLINGTON_PRES DS824_LAT DS824_LON DS824_STAGE DS824_WIND DS824_PRES TD9636_LAT TD9636_LON TD9636_STAGE TD9636_WIND TD9636_PRES TD9635_LAT TD9635_LON TD9635_WIND TD9635_PRES TD9635_ROCI NEUMANN_LAT NEUMANN_LON NEUMANN_CLASS NEUMANN_WIND NEUMANN_PRES MLC_LAT MLC_LON MLC_CLASS MLC_WIND MLC_PRES USA_GUST BOM_GUST BOM_GUST_PER REUNION_GUST REUNION_GUST_PER USA_SEAHGT USA_SEARAD_NE USA_SEARAD_SE USA_SEARAD_SW USA_SEARAD_NW STORM_SPEED STORM_DIR
1958289N21291 1958 97 NA NA NOT_NAMED 1958-10-15 18:00:00 TS 21.3000 -68.7000 30 hurdat_atl main 232 232 O_____________ hurdat_atl AL121958 21.3000 -68.7000 TD 30 -1 14 1
1958289N21291 1958 97 NA NA NOT_NAMED 1958-10-15 21:00:00 TS 22.0021 -68.6964 main 300 300 P_____________ AL121958 22.0021 -68.6964 TD 30 -1 14 8
1958289N21291 1958 97 NA NA NOT_NAMED 1958-10-16 00:00:00 TS 22.7000 -68.5000 30 hurdat_atl main 379 379 O_____________ hurdat_atl AL121958 22.7000 -68.5000 TD 30 -1 15 25
1958289N21291 1958 97 NA NA NOT_NAMED 1958-10-16 03:00:00 TS 23.3806 -68.0088 main 472 472 P_____________ AL121958 23.3806 -68.0088 TD 32 -1 16 35
1958289N21291 1958 97 NA NA NOT_NAMED 1958-10-16 06:00:00 TS 24.0000 -67.5000 35 hurdat_atl main 555 555 O_____________ hurdat_atl AL121958 24.0000 -67.5000 TS 35 0 13 29
1958289N21291 1958 97 NA NA NOT_NAMED 1958-10-16 09:00:00 TS 24.5597 -67.3041 main 624 624 P_____________ AL121958 24.5597 -67.3041 TS 37 0 10 15
1958289N21291 1958 97 NA NA NOT_NAMED 1958-10-16 12:00:00 TS 25.0000 -67.2000 40 hurdat_atl main 668 668 O_____________ hurdat_atl AL121958 25.0000 -67.2000 TS 40 0 7 19
1958289N21291 1958 97 NA NA NOT_NAMED 1958-10-16 15:00:00 TS 25.2498 -67.0368 main 697 697 P_____________ AL121958 25.2498 -67.0368 TS 40 0 6 36
1958289N21291 1958 97 NA NA NOT_NAMED 1958-10-16 18:00:00 TS 25.5000 -66.8000 40 hurdat_atl main 736 736 O_____________ hurdat_atl AL121958 25.5000 -66.8000 TS 40 0 8 40
1958289N21291 1958 97 NA NA NOT_NAMED 1958-10-16 21:00:00 TS 25.8875 -66.4441 main 794 794 P_____________ AL121958 25.8875 -66.4441 TS 40 0 12 36
1958289N21291 1958 97 NA NA NOT_NAMED 1958-10-17 00:00:00 TS 26.5000 -66.0000 40 hurdat_atl main 872 872 O_____________ hurdat_atl AL121958 26.5000 -66.0000 TS 40 0 17 28
1958289N21291 1958 97 NA NA NOT_NAMED 1958-10-17 03:00:00 TS 27.3871 -65.5509 main 980 980 P_____________ AL121958 27.3871 -65.5509 TS 42 0 22 24
1958289N21291 1958 97 NA NA NOT_NAMED 1958-10-17 06:00:00 TS 28.5000 -65.0000 45 hurdat_atl main 1116 1116 O_____________ hurdat_atl AL121958 28.5000 -65.0000 TS 45 0 26 26
1958289N21291 1958 97 NA NA NOT_NAMED 1958-10-17 09:00:00 TS 29.7127 -64.2875 main 1245 1229 P_____________ AL121958 29.7127 -64.2875 TS 47 0 28 28
1958289N21291 1958 97 NA NA NOT_NAMED 1958-10-17 12:00:00 ET 31.0000 -63.5000 50 hurdat_atl main 1232 1226 O_____________ hurdat_atl AL121958 31.0000 -63.5000 EX 50 -4 29 27
1958289N21291 1958 97 NA NA NOT_NAMED 1958-10-17 15:00:00 ET 32.2863 -62.7851 main 1224 1155 P_____________ AL121958 32.2863 -62.7851 EX 52 -4 28 27
1958289N21291 1958 97 NA NA NOT_NAMED 1958-10-17 18:00:00 ET 33.5000 -62.0000 55 hurdat_atl main 1149 1064 O_____________ hurdat_atl AL121958 33.5000 -62.0000 EX 55 -4 27 33
1958289N21291 1958 97 NA NA NOT_NAMED 1958-10-17 21:00:00 ET 34.5375 -61.0354 main 1067 1004 P_____________ AL121958 34.5375 -61.0354 EX 57 -4 26 39
1958289N21291 1958 97 NA NA NOT_NAMED 1958-10-18 00:00:00 ET 35.5000 -60.0000 60 hurdat_atl main 998 958 O_____________ hurdat_atl AL121958 35.5000 -60.0000 EX 60 -4 25 41
1958289N21291 1958 97 NA NA NOT_NAMED 1958-10-18 03:00:00 ET 36.3860 -59.0278 main 953 901 P_____________ AL121958 36.3860 -59.0278 EX 60 -4 26 39
1958289N21291 1958 97 NA NA NOT_NAMED 1958-10-18 06:00:00 ET 37.5000 -58.0000 60 hurdat_atl main 894 770 O_____________ hurdat_atl AL121958 37.5000 -58.0000 EX 60 -4 32 33
1958289N21291 1958 97 NA NA NOT_NAMED 1958-10-18 09:00:00 ET 39.1005 -56.7863 main 764 650 P_____________ AL121958 39.1005 -56.7863 EX 60 -4 40 29
1958289N21291 1958 97 NA NA NOT_NAMED 1958-10-18 12:00:00 ET 41.0000 -55.5000 60 hurdat_atl main 640 414 O_____________ hurdat_atl AL121958 41.0000 -55.5000 EX 60 -4 43 26
1958289N21291 1958 97 NA NA NOT_NAMED 1958-10-18 15:00:00 ET 42.9887 -54.2517 main 403 189 P_____________ AL121958 42.9887 -54.2517 EX 60 -4 44 25
1958289N21291 1958 97 NA NA NOT_NAMED 1958-10-18 18:00:00 ET 45.0000 -53.0000 60 hurdat_atl main 178 O_____________ hurdat_atl AL121958 45.0000 -53.0000 EX 60 -4 44 24

About IBTrACS Database

This database is a web-friendly format of International Best Track Archive for Climate Stewardship (IBTrACS), a global best track data archive curated by NOAA dating back to 1842.

Updated: 2021-10-21